sensor_id;sensor_type;location;lat;lon;timestamp;pressure;altitude;pressure_sealevel;temperature;humidity
28289;BME280;15558;50.874;6.964;2022-11-20T00:01:10;100848.41;;;8.70;62.27
28289;BME280;15558;50.874;6.964;2022-11-20T00:03:38;100857.38;;;8.72;62.43
28289;BME280;15558;50.874;6.964;2022-11-20T00:06:07;100865.19;;;8.70;61.99
28289;BME280;15558;50.874;6.964;2022-11-20T00:08:36;100862.97;;;8.72;61.86
28289;BME280;15558;50.874;6.964;2022-11-20T00:11:04;100858.47;;;8.71;61.85
28289;BME280;15558;50.874;6.964;2022-11-20T00:13:36;100858.19;;;8.72;62.09
28289;BME280;15558;50.874;6.964;2022-11-20T00:16:03;100856.53;;;8.66;62.01
28289;BME280;15558;50.874;6.964;2022-11-20T00:18:30;100848.97;;;8.72;62.00
28289;BME280;15558;50.874;6.964;2022-11-20T00:21:02;100851.19;;;8.74;62.39
28289;BME280;15558;50.874;6.964;2022-11-20T00:23:28;100854.00;;;8.70;62.20
28289;BME280;15558;50.874;6.964;2022-11-20T00:25:54;100855.13;;;8.74;62.37
28289;BME280;15558;50.874;6.964;2022-11-20T00:28:20;100860.44;;;8.70;62.13
28289;BME280;15558;50.874;6.964;2022-11-20T00:30:49;100859.59;;;8.70;62.54
28289;BME280;15558;50.874;6.964;2022-11-20T00:33:15;100858.50;;;8.66;62.14
28289;BME280;15558;50.874;6.964;2022-11-20T00:35:41;100860.72;;;8.69;62.78
28289;BME280;15558;50.874;6.964;2022-11-20T00:38:07;100845.63;;;8.70;62.22
28289;BME280;15558;50.874;6.964;2022-11-20T00:40:33;100841.41;;;8.72;61.82
28289;BME280;15558;50.874;6.964;2022-11-20T00:42:58;100847.88;;;8.68;61.59
28289;BME280;15558;50.874;6.964;2022-11-20T00:45:24;100845.63;;;8.65;61.76
28289;BME280;15558;50.874;6.964;2022-11-20T00:47:50;100843.94;;;8.74;61.06
28289;BME280;15558;50.874;6.964;2022-11-20T00:50:16;100843.66;;;8.70;61.03
28289;BME280;15558;50.874;6.964;2022-11-20T00:52:42;100838.34;;;8.69;61.18
28289;BME280;15558;50.874;6.964;2022-11-20T00:55:11;100841.13;;;8.69;61.69
28289;BME280;15558;50.874;6.964;2022-11-20T00:57:37;100834.16;;;8.71;61.55
28289;BME280;15558;50.874;6.964;2022-11-20T01:00:03;100837.78;;;8.67;61.06
28289;BME280;15558;50.874;6.964;2022-11-20T01:02:29;100853.47;;;8.68;61.08
28289;BME280;15558;50.874;6.964;2022-11-20T01:04:58;100850.97;;;8.61;61.41
28289;BME280;15558;50.874;6.964;2022-11-20T01:07:23;100850.38;;;8.64;62.38
28289;BME280;15558;50.874;6.964;2022-11-20T01:09:52;100852.63;;;8.62;62.10
28289;BME280;15558;50.874;6.964;2022-11-20T01:12:18;100851.22;;;8.65;61.92
28289;BME280;15558;50.874;6.964;2022-11-20T01:14:44;100866.91;;;8.61;62.09
28289;BME280;15558;50.874;6.964;2022-11-20T01:17:10;100845.63;;;8.65;62.66
28289;BME280;15558;50.874;6.964;2022-11-20T01:19:36;100853.72;;;8.66;62.24
28289;BME280;15558;50.874;6.964;2022-11-20T01:22:02;100846.16;;;8.67;62.20
28289;BME280;15558;50.874;6.964;2022-11-20T01:24:28;100848.16;;;8.61;62.29
28289;BME280;15558;50.874;6.964;2022-11-20T01:26:53;100846.47;;;8.60;61.45
28289;BME280;15558;50.874;6.964;2022-11-20T01:29:24;100850.13;;;8.61;62.23
28289;BME280;15558;50.874;6.964;2022-11-20T01:31:53;100852.06;;;8.60;62.14
28289;BME280;15558;50.874;6.964;2022-11-20T01:34:20;100846.47;;;8.60;61.61
28289;BME280;15558;50.874;6.964;2022-11-20T01:36:48;100845.63;;;8.65;61.64
28289;BME280;15558;50.874;6.964;2022-11-20T01:39:17;100848.97;;;8.67;61.60
28289;BME280;15558;50.874;6.964;2022-11-20T01:41:44;100844.53;;;8.61;61.92
28289;BME280;15558;50.874;6.964;2022-11-20T01:44:56;100840.03;;;8.65;61.31
28289;BME280;15558;50.874;6.964;2022-11-20T01:47:32;100839.19;;;8.64;61.57
28289;BME280;15558;50.874;6.964;2022-11-20T01:50:46;100838.63;;;8.67;61.32
28289;BME280;15558;50.874;6.964;2022-11-20T01:53:08;100828.59;;;8.61;61.55
28289;BME280;15558;50.874;6.964;2022-11-20T01:55:41;100821.84;;;8.67;61.52
28289;BME280;15558;50.874;6.964;2022-11-20T01:58:09;100812.63;;;8.62;61.38
28289;BME280;15558;50.874;6.964;2022-11-20T02:00:35;100814.03;;;8.59;60.94
28289;BME280;15558;50.874;6.964;2022-11-20T02:03:04;100801.72;;;8.60;60.78
28289;BME280;15558;50.874;6.964;2022-11-20T02:08:28;100800.34;;;8.58;60.63
28289;BME280;15558;50.874;6.964;2022-11-20T02:10:54;100795.88;;;8.57;60.55
28289;BME280;15558;50.874;6.964;2022-11-20T02:13:19;100799.50;;;8.52;60.78
28289;BME280;15558;50.874;6.964;2022-11-20T02:16:08;100798.41;;;8.53;61.02
28289;BME280;15558;50.874;6.964;2022-11-20T02:18:34;100807.09;;;8.47;61.09
28289;BME280;15558;50.874;6.964;2022-11-20T02:26:44;100826.94;;;8.50;61.07
28289;BME280;15558;50.874;6.964;2022-11-20T02:29:12;100817.16;;;8.43;61.27
28289;BME280;15558;50.874;6.964;2022-11-20T02:31:45;100809.34;;;8.45;61.21
28289;BME280;15558;50.874;6.964;2022-11-20T02:34:11;100821.91;;;8.47;61.43
28289;BME280;15558;50.874;6.964;2022-11-20T02:36:39;100814.34;;;8.48;60.98
28289;BME280;15558;50.874;6.964;2022-11-20T02:39:06;100818.28;;;8.47;61.33
28289;BME280;15558;50.874;6.964;2022-11-20T02:41:35;100813.22;;;8.44;60.64
28289;BME280;15558;50.874;6.964;2022-11-20T02:44:02;100803.47;;;8.46;60.81
28289;BME280;15558;50.874;6.964;2022-11-20T02:46:28;100802.59;;;8.46;61.01
28289;BME280;15558;50.874;6.964;2022-11-20T02:48:54;100799.25;;;8.44;60.69
28289;BME280;15558;50.874;6.964;2022-11-20T02:51:20;100801.50;;;8.47;61.06
28289;BME280;15558;50.874;6.964;2022-11-20T02:53:46;100802.03;;;8.44;61.11
28289;BME280;15558;50.874;6.964;2022-11-20T02:56:12;100802.59;;;8.46;60.87
28289;BME280;15558;50.874;6.964;2022-11-20T02:58:38;100792.59;;;8.40;61.48
28289;BME280;15558;50.874;6.964;2022-11-20T03:01:04;100798.69;;;8.42;61.09
28289;BME280;15558;50.874;6.964;2022-11-20T03:03:30;100810.75;;;8.42;61.37
28289;BME280;15558;50.874;6.964;2022-11-20T03:05:58;100796.19;;;8.36;61.97
28289;BME280;15558;50.874;6.964;2022-11-20T03:08:25;100797.88;;;8.32;61.63
28289;BME280;15558;50.874;6.964;2022-11-20T03:10:51;100788.91;;;8.39;61.72
28289;BME280;15558;50.874;6.964;2022-11-20T03:13:17;100790.00;;;8.53;61.26
28289;BME280;15558;50.874;6.964;2022-11-20T03:15:45;100788.13;;;8.34;62.40
28289;BME280;15558;50.874;6.964;2022-11-20T03:18:11;100790.06;;;8.34;62.62
28289;BME280;15558;50.874;6.964;2022-11-20T03:20:39;100796.47;;;8.39;62.28
28289;BME280;15558;50.874;6.964;2022-11-20T03:23:05;100790.31;;;8.42;62.23
28289;BME280;15558;50.874;6.964;2022-11-20T03:25:31;100785.28;;;8.39;62.62
28289;BME280;15558;50.874;6.964;2022-11-20T03:27:56;100791.72;;;8.39;62.71
28289;BME280;15558;50.874;6.964;2022-11-20T03:30:22;100784.16;;;8.45;62.32
28289;BME280;15558;50.874;6.964;2022-11-20T03:32:48;100774.09;;;8.39;62.23
28289;BME280;15558;50.874;6.964;2022-11-20T03:35:14;100785.59;;;8.33;62.79
28289;BME280;15558;50.874;6.964;2022-11-20T03:37:40;100781.94;;;8.37;63.21
28289;BME280;15558;50.874;6.964;2022-11-20T03:40:06;100783.03;;;8.46;62.37
28289;BME280;15558;50.874;6.964;2022-11-20T03:42:32;100785.28;;;8.39;62.61
28289;BME280;15558;50.874;6.964;2022-11-20T03:45:10;100782.75;;;8.47;63.11
28289;BME280;15558;50.874;6.964;2022-11-20T03:47:36;100775.25;;;8.38;63.12
28289;BME280;15558;50.874;6.964;2022-11-20T03:50:03;100771.31;;;8.39;63.57
28289;BME280;15558;50.874;6.964;2022-11-20T03:52:29;100773.53;;;8.42;63.63
28289;BME280;15558;50.874;6.964;2022-11-20T03:54:55;100769.91;;;8.41;63.56
28289;BME280;15558;50.874;6.964;2022-11-20T03:57:21;100767.94;;;8.47;63.34
28289;BME280;15558;50.874;6.964;2022-11-20T03:59:47;100770.47;;;8.48;63.58
28289;BME280;15558;50.874;6.964;2022-11-20T04:02:12;100763.13;;;8.52;63.26
28289;BME280;15558;50.874;6.964;2022-11-20T04:04:38;100766.78;;;8.48;64.09
28289;BME280;15558;50.874;6.964;2022-11-20T04:07:04;100762.63;;;8.50;63.57
28289;BME280;15558;50.874;6.964;2022-11-20T04:09:30;100764.00;;;8.53;63.62
28289;BME280;15558;50.874;6.964;2022-11-20T04:11:56;100755.88;;;8.51;63.71
28289;BME280;15558;50.874;6.964;2022-11-20T04:14:22;100761.16;;;8.58;63.69
28289;BME280;15558;50.874;6.964;2022-11-20T04:16:48;100756.72;;;8.57;63.88
28289;BME280;15558;50.874;6.964;2022-11-20T04:19:15;100746.34;;;8.57;63.90
28289;BME280;15558;50.874;6.964;2022-11-20T04:21:43;100751.94;;;8.57;63.81
28289;BME280;15558;50.874;6.964;2022-11-20T04:24:10;100744.38;;;8.58;64.17
28289;BME280;15558;50.874;6.964;2022-11-20T04:26:39;100747.47;;;8.56;63.98
28289;BME280;15558;50.874;6.964;2022-11-20T04:29:05;100748.88;;;8.54;64.41
28289;BME280;15558;50.874;6.964;2022-11-20T04:31:33;100750.56;;;8.55;64.33
28289;BME280;15558;50.874;6.964;2022-11-20T04:34:04;100760.06;;;8.54;64.64
28289;BME280;15558;50.874;6.964;2022-11-20T04:36:31;100755.84;;;8.56;64.55
28289;BME280;15558;50.874;6.964;2022-11-20T04:39:02;100748.59;;;8.55;65.13
28289;BME280;15558;50.874;6.964;2022-11-20T04:41:32;100751.13;;;8.57;64.82
28289;BME280;15558;50.874;6.964;2022-11-20T04:44:00;100749.47;;;8.51;64.42
28289;BME280;15558;50.874;6.964;2022-11-20T04:46:34;100742.72;;;8.52;64.63
28289;BME280;15558;50.874;6.964;2022-11-20T04:49:02;100752.50;;;8.54;65.05
28289;BME280;15558;50.874;6.964;2022-11-20T04:51:28;100752.81;;;8.53;64.78
28289;BME280;15558;50.874;6.964;2022-11-20T04:53:54;100752.25;;;8.51;64.51
28289;BME280;15558;50.874;6.964;2022-11-20T04:56:20;100760.66;;;8.51;64.77
28289;BME280;15558;50.874;6.964;2022-11-20T04:58:46;100755.91;;;8.46;64.96
28289;BME280;15558;50.874;6.964;2022-11-20T05:01:23;100765.41;;;8.45;65.33
28289;BME280;15558;50.874;6.964;2022-11-20T05:03:49;100769.03;;;8.46;65.69
28289;BME280;15558;50.874;6.964;2022-11-20T05:06:17;100762.06;;;8.48;65.66
28289;BME280;15558;50.874;6.964;2022-11-20T05:08:44;100761.19;;;8.48;65.81
28289;BME280;15558;50.874;6.964;2022-11-20T05:11:12;100767.94;;;8.47;66.12
28289;BME280;15558;50.874;6.964;2022-11-20T05:13:38;100775.50;;;8.46;66.05
28289;BME280;15558;50.874;6.964;2022-11-20T05:16:10;100768.72;;;8.52;66.43
28289;BME280;15558;50.874;6.964;2022-11-20T05:18:37;100760.66;;;8.51;66.00
28289;BME280;15558;50.874;6.964;2022-11-20T05:21:04;100763.69;;;8.54;66.30
28289;BME280;15558;50.874;6.964;2022-11-20T05:23:32;100765.41;;;8.50;66.20
28289;BME280;15558;50.874;6.964;2022-11-20T05:25:59;100757.84;;;8.46;65.81
28289;BME280;15558;50.874;6.964;2022-11-20T05:28:26;100760.66;;;8.46;66.00
28289;BME280;15558;50.874;6.964;2022-11-20T05:30:52;100757.84;;;8.51;66.06
28289;BME280;15558;50.874;6.964;2022-11-20T05:33:18;100766.25;;;8.46;66.40
28289;BME280;15558;50.874;6.964;2022-11-20T05:35:44;100763.44;;;8.46;65.94
28289;BME280;15558;50.874;6.964;2022-11-20T05:38:10;100761.78;;;8.45;65.67
28289;BME280;15558;50.874;6.964;2022-11-20T05:40:39;100762.91;;;8.49;66.22
28289;BME280;15558;50.874;6.964;2022-11-20T05:43:05;100778.03;;;8.38;65.53
28289;BME280;15558;50.874;6.964;2022-11-20T05:45:31;100775.25;;;8.38;65.83
28289;BME280;15558;50.874;6.964;2022-11-20T05:47:58;100769.63;;;8.43;65.82
28289;BME280;15558;50.874;6.964;2022-11-20T05:50:27;100765.13;;;8.42;66.35
28289;BME280;15558;50.874;6.964;2022-11-20T05:52:53;100762.34;;;8.42;66.08
28289;BME280;15558;50.874;6.964;2022-11-20T05:55:18;100770.72;;;8.47;65.99
28289;BME280;15558;50.874;6.964;2022-11-20T05:57:44;100773.81;;;8.50;65.84
28289;BME280;15558;50.874;6.964;2022-11-20T06:00:11;100765.94;;;8.52;65.60
28289;BME280;15558;50.874;6.964;2022-11-20T06:02:36;100753.91;;;8.57;65.76
28289;BME280;15558;50.874;6.964;2022-11-20T06:05:03;100772.41;;;8.53;65.38
28289;BME280;15558;50.874;6.964;2022-11-20T06:07:29;100764.31;;;8.46;66.30
28289;BME280;15558;50.874;6.964;2022-11-20T06:09:57;100769.03;;;8.46;65.69
28289;BME280;15558;50.874;6.964;2022-11-20T06:12:23;100768.22;;;8.45;65.68
28289;BME280;15558;50.874;6.964;2022-11-20T06:14:49;100767.09;;;8.46;66.10
28289;BME280;15558;50.874;6.964;2022-11-20T06:17:15;100761.78;;;8.45;66.01
28289;BME280;15558;50.874;6.964;2022-11-20T06:19:41;100759.22;;;8.53;65.81
28289;BME280;15558;50.874;6.964;2022-11-20T06:22:07;100764.28;;;8.51;65.63
28289;BME280;15558;50.874;6.964;2022-11-20T06:24:33;100757.84;;;8.51;65.94
28289;BME280;15558;50.874;6.964;2022-11-20T06:26:59;100756.16;;;8.55;65.97
28289;BME280;15558;50.874;6.964;2022-11-20T06:29:25;100765.09;;;8.52;65.59
28289;BME280;15558;50.874;6.964;2022-11-20T06:31:50;100753.91;;;8.52;66.09
28289;BME280;15558;50.874;6.964;2022-11-20T06:34:16;100760.06;;;8.54;66.02
28289;BME280;15558;50.874;6.964;2022-11-20T06:36:42;100758.09;;;8.59;65.87
28289;BME280;15558;50.874;6.964;2022-11-20T06:39:08;100761.47;;;8.51;65.47
28289;BME280;15558;50.874;6.964;2022-11-20T06:41:35;100763.97;;;8.58;65.91
28289;BME280;15558;50.874;6.964;2022-11-20T06:44:04;100771.25;;;8.54;65.70
28289;BME280;15558;50.874;6.964;2022-11-20T06:46:31;100762.31;;;8.52;65.35
28289;BME280;15558;50.874;6.964;2022-11-20T06:48:57;100770.44;;;8.53;65.20
28289;BME280;15558;50.874;6.964;2022-11-20T06:51:24;100775.97;;;8.58;65.42
28289;BME280;15558;50.874;6.964;2022-11-20T06:53:50;100776.28;;;8.57;65.18
28289;BME280;15558;50.874;6.964;2022-11-20T06:56:16;100770.69;;;8.52;65.53
28289;BME280;15558;50.874;6.964;2022-11-20T06:58:42;100766.78;;;8.53;65.32
28289;BME280;15558;50.874;6.964;2022-11-20T07:01:13;100770.69;;;8.57;65.27
28289;BME280;15558;50.874;6.964;2022-11-20T07:03:40;100783.34;;;8.44;65.83
28289;BME280;15558;50.874;6.964;2022-11-20T07:06:07;100783.03;;;8.51;65.74
28289;BME280;15558;50.874;6.964;2022-11-20T07:08:33;100781.34;;;8.55;66.22
28289;BME280;15558;50.874;6.964;2022-11-20T07:11:01;100784.97;;;8.55;65.78
28289;BME280;15558;50.874;6.964;2022-11-20T07:13:28;100790.84;;;8.59;65.22
28289;BME280;15558;50.874;6.964;2022-11-20T07:15:54;100798.09;;;8.60;65.39
28289;BME280;15558;50.874;6.964;2022-11-20T07:18:21;100797.25;;;8.54;65.82
28289;BME280;15558;50.874;6.964;2022-11-20T07:20:46;100802.03;;;8.54;66.05
28289;BME280;15558;50.874;6.964;2022-11-20T07:23:15;100800.06;;;8.54;66.16
28289;BME280;15558;50.874;6.964;2022-11-20T07:25:41;100800.06;;;8.59;66.16
28289;BME280;15558;50.874;6.964;2022-11-20T07:28:07;100796.72;;;8.57;65.77
28289;BME280;15558;50.874;6.964;2022-11-20T07:30:36;100814.59;;;8.56;65.65
28289;BME280;15558;50.874;6.964;2022-11-20T07:33:03;100808.44;;;8.59;65.86
28289;BME280;15558;50.874;6.964;2022-11-20T07:35:29;100798.13;;;8.55;66.44
28289;BME280;15558;50.874;6.964;2022-11-20T07:37:55;100799.81;;;8.51;66.19
28289;BME280;15558;50.874;6.964;2022-11-20T07:40:20;100807.66;;;8.49;66.14
28289;BME280;15558;50.874;6.964;2022-11-20T07:42:51;100807.41;;;8.40;66.25
28289;BME280;15558;50.874;6.964;2022-11-20T07:45:18;100807.91;;;8.47;66.15
28289;BME280;15558;50.874;6.964;2022-11-20T07:47:44;100805.69;;;8.49;66.10
28289;BME280;15558;50.874;6.964;2022-11-20T07:50:10;100793.38;;;8.50;66.43
28289;BME280;15558;50.874;6.964;2022-11-20T07:52:36;100804.53;;;8.55;66.03
28289;BME280;15558;50.874;6.964;2022-11-20T07:55:03;100787.50;;;8.47;66.59
28289;BME280;15558;50.874;6.964;2022-11-20T07:57:29;100795.31;;;8.55;65.86
28289;BME280;15558;50.874;6.964;2022-11-20T07:59:55;100797.25;;;8.59;65.81
28289;BME280;15558;50.874;6.964;2022-11-20T08:02:21;100802.03;;;8.59;66.24
28289;BME280;15558;50.874;6.964;2022-11-20T08:04:47;100801.44;;;8.62;65.70
28289;BME280;15558;50.874;6.964;2022-11-20T08:07:12;100796.69;;;8.52;66.28
28289;BME280;15558;50.874;6.964;2022-11-20T08:09:38;100802.28;;;8.52;66.79
28289;BME280;15558;50.874;6.964;2022-11-20T08:12:05;100794.75;;;8.53;66.77
28289;BME280;15558;50.874;6.964;2022-11-20T08:14:50;100785.25;;;8.59;66.41
28289;BME280;15558;50.874;6.964;2022-11-20T08:17:15;100780.19;;;8.61;66.01
28289;BME280;15558;50.874;6.964;2022-11-20T08:19:41;100791.63;;;8.64;66.32
28289;BME280;15558;50.874;6.964;2022-11-20T08:22:07;100784.94;;;8.60;66.40
28289;BME280;15558;50.874;6.964;2022-11-20T08:24:33;100790.22;;;8.67;66.82
28289;BME280;15558;50.874;6.964;2022-11-20T08:26:59;100795.25;;;8.65;66.93
28289;BME280;15558;50.874;6.964;2022-11-20T08:29:31;100789.38;;;8.66;66.70
28289;BME280;15558;50.874;6.964;2022-11-20T08:31:57;100792.50;;;8.60;66.69
28289;BME280;15558;50.874;6.964;2022-11-20T08:34:23;100788.88;;;8.59;66.44
28289;BME280;15558;50.874;6.964;2022-11-20T08:36:49;100786.88;;;8.65;66.70
28289;BME280;15558;50.874;6.964;2022-11-20T08:39:15;100799.47;;;8.67;66.26
28289;BME280;15558;50.874;6.964;2022-11-20T08:41:41;100799.41;;;8.77;66.78
28289;BME280;15558;50.874;6.964;2022-11-20T08:44:07;100805.81;;;8.82;66.56
28289;BME280;15558;50.874;6.964;2022-11-20T08:46:39;100796.31;;;8.83;65.70
28289;BME280;15558;50.874;6.964;2022-11-20T08:49:10;100792.34;;;8.89;65.70
28289;BME280;15558;50.874;6.964;2022-11-20T08:51:37;100795.78;;;8.81;66.69
28289;BME280;15558;50.874;6.964;2022-11-20T08:54:04;100801.03;;;8.93;65.82
28289;BME280;15558;50.874;6.964;2022-11-20T08:56:30;100801.88;;;8.88;66.15
28289;BME280;15558;50.874;6.964;2022-11-20T08:58:56;100795.47;;;8.88;66.13
28289;BME280;15558;50.874;6.964;2022-11-20T09:01:29;100800.16;;;8.97;65.47
28289;BME280;15558;50.874;6.964;2022-11-20T09:03:55;100797.31;;;9.07;65.28
28289;BME280;15558;50.874;6.964;2022-11-20T09:06:22;100793.53;;;9.31;65.10
28289;BME280;15558;50.874;6.964;2022-11-20T09:08:52;100793.66;;;9.49;64.59
28289;BME280;15558;50.874;6.964;2022-11-20T09:11:18;100793.66;;;9.49;64.29
28289;BME280;15558;50.874;6.964;2022-11-20T09:13:44;100789.13;;;9.53;63.50
28289;BME280;15558;50.874;6.964;2022-11-20T09:16:09;100784.69;;;9.80;64.64
28289;BME280;15558;50.874;6.964;2022-11-20T09:18:36;100778.31;;;9.75;64.40
28289;BME280;15558;50.874;6.964;2022-11-20T09:21:08;100763.97;;;9.48;63.97
28289;BME280;15558;50.874;6.964;2022-11-20T09:23:36;100784.25;;;9.36;64.56
28289;BME280;15558;50.874;6.964;2022-11-20T09:26:09;100777.75;;;9.40;64.20
28289;BME280;15558;50.874;6.964;2022-11-20T09:28:35;100778.34;;;9.37;63.88
28289;BME280;15558;50.874;6.964;2022-11-20T09:31:07;100782.66;;;9.25;64.42
28289;BME280;15558;50.874;6.964;2022-11-20T09:33:35;100774.69;;;9.42;63.88
28289;BME280;15558;50.874;6.964;2022-11-20T09:36:01;100758.97;;;9.45;63.65
28289;BME280;15558;50.874;6.964;2022-11-20T09:38:26;100764.31;;;9.42;63.74
28289;BME280;15558;50.874;6.964;2022-11-20T09:41:06;100767.59;;;9.49;64.08
28289;BME280;15558;50.874;6.964;2022-11-20T09:46:31;100775.25;;;9.39;64.68
28289;BME280;15558;50.874;6.964;2022-11-20T09:49:23;100774.09;;;9.44;64.10
28289;BME280;15558;50.874;6.964;2022-11-20T09:51:59;100768.56;;;9.35;64.28
28289;BME280;15558;50.874;6.964;2022-11-20T09:54:29;100770.31;;;9.26;64.87
28289;BME280;15558;50.874;6.964;2022-11-20T09:57:01;100772.00;;;9.22;64.99
28289;BME280;15558;50.874;6.964;2022-11-20T09:59:40;100767.25;;;9.22;64.67
28289;BME280;15558;50.874;6.964;2022-11-20T10:05:04;100770.38;;;9.16;65.07
28289;BME280;15558;50.874;6.964;2022-11-20T10:07:40;100777.28;;;9.28;65.65
28289;BME280;15558;50.874;6.964;2022-11-20T10:10:25;100772.59;;;9.19;65.16
28289;BME280;15558;50.874;6.964;2022-11-20T10:15:45;100769.91;;;9.42;64.88
28289;BME280;15558;50.874;6.964;2022-11-20T10:21:11;100761.28;;;9.34;65.71
28289;BME280;15558;50.874;6.964;2022-11-20T10:29:35;100727.91;;;9.70;64.97
28289;BME280;15558;50.874;6.964;2022-11-20T10:32:11;100727.34;;;9.73;65.08
28289;BME280;15558;50.874;6.964;2022-11-20T10:34:53;100715.28;;;9.73;64.84
28289;BME280;15558;50.874;6.964;2022-11-20T10:37:24;100710.47;;;9.78;64.58
28289;BME280;15558;50.874;6.964;2022-11-20T10:39:55;100716.13;;;9.73;63.97
28289;BME280;15558;50.874;6.964;2022-11-20T10:42:36;100709.34;;;9.79;64.45
28289;BME280;15558;50.874;6.964;2022-11-20T10:45:35;100707.38;;;9.79;63.69
28289;BME280;15558;50.874;6.964;2022-11-20T10:50:35;100704.28;;;9.81;63.92
28289;BME280;15558;50.874;6.964;2022-11-20T10:53:14;100700.47;;;9.67;64.76
28289;BME280;15558;50.874;6.964;2022-11-20T10:55:50;100706.63;;;9.69;64.32
28289;BME280;15558;50.874;6.964;2022-11-20T11:01:18;100683.81;;;9.52;65.02
28289;BME280;15558;50.874;6.964;2022-11-20T11:03:47;100681.84;;;9.53;65.54
28289;BME280;15558;50.874;6.964;2022-11-20T11:06:43;100673.69;;;9.56;65.16
28289;BME280;15558;50.874;6.964;2022-11-20T11:09:21;100676.91;;;9.68;64.55
28289;BME280;15558;50.874;6.964;2022-11-20T11:11:49;100674.56;;;9.80;65.60
28289;BME280;15558;50.874;6.964;2022-11-20T11:14:16;100668.41;;;9.78;64.90
28289;BME280;15558;50.874;6.964;2022-11-20T11:16:53;100660.03;;;9.50;64.79
28289;BME280;15558;50.874;6.964;2022-11-20T11:19:20;100659.59;;;9.66;65.07
28289;BME280;15558;50.874;6.964;2022-11-20T11:24:24;100653.81;;;9.81;64.97
28289;BME280;15558;50.874;6.964;2022-11-20T11:27:11;100643.16;;;9.83;64.78
28289;BME280;15558;50.874;6.964;2022-11-20T11:29:37;100650.13;;;9.85;65.44
28289;BME280;15558;50.874;6.964;2022-11-20T11:32:20;100641.03;;;9.98;65.20
28289;BME280;15558;50.874;6.964;2022-11-20T11:37:29;100635.31;;;10.08;64.75
28289;BME280;15558;50.874;6.964;2022-11-20T11:40:02;100629.75;;;10.03;64.86
28289;BME280;15558;50.874;6.964;2022-11-20T11:42:29;100617.88;;;10.11;64.33
28289;BME280;15558;50.874;6.964;2022-11-20T11:44:58;100621.50;;;10.12;64.77
28289;BME280;15558;50.874;6.964;2022-11-20T11:47:44;100626.53;;;10.15;65.02
28289;BME280;15558;50.874;6.964;2022-11-20T11:53:02;100615.72;;;10.03;64.69
28289;BME280;15558;50.874;6.964;2022-11-20T11:55:36;100613.72;;;10.09;64.80
28289;BME280;15558;50.874;6.964;2022-11-20T12:00:40;100602.63;;;9.99;64.42
28289;BME280;15558;50.874;6.964;2022-11-20T12:03:17;100605.13;;;10.00;64.41
28289;BME280;15558;50.874;6.964;2022-11-20T12:05:51;100601.53;;;9.95;64.09
28289;BME280;15558;50.874;6.964;2022-11-20T12:11:13;100584.59;;;10.05;64.57
28289;BME280;15558;50.874;6.964;2022-11-20T12:13:58;100574.16;;;9.87;64.84
28289;BME280;15558;50.874;6.964;2022-11-20T12:16:30;100581.72;;;9.86;65.34
28289;BME280;15558;50.874;6.964;2022-11-20T12:18:59;100573.50;;;9.95;64.93
28289;BME280;15558;50.874;6.964;2022-11-20T12:21:37;100571.94;;;9.84;65.03
28289;BME280;15558;50.874;6.964;2022-11-20T12:40:51;100550.50;;;9.98;64.27
28289;BME280;15558;50.874;6.964;2022-11-20T12:43:30;100544.22;;;10.06;64.46
28289;BME280;15558;50.874;6.964;2022-11-20T12:49:40;100539.31;;;9.93;64.71
28289;BME280;15558;50.874;6.964;2022-11-20T12:52:37;100526.53;;;10.05;64.44
28289;BME280;15558;50.874;6.964;2022-11-20T12:55:16;100530.53;;;10.22;64.50
28289;BME280;15558;50.874;6.964;2022-11-20T12:57:55;100525.97;;;10.26;64.79
28289;BME280;15558;50.874;6.964;2022-11-20T13:00:24;100516.78;;;10.21;64.60
28289;BME280;15558;50.874;6.964;2022-11-20T13:03:23;100513.69;;;10.22;64.87
28289;BME280;15558;50.874;6.964;2022-11-20T13:08:33;100496.38;;;10.15;64.35
28289;BME280;15558;50.874;6.964;2022-11-20T13:14:35;100490.25;;;10.32;63.62
28289;BME280;15558;50.874;6.964;2022-11-20T13:19:33;100474.81;;;10.16;64.23
28289;BME280;15558;50.874;6.964;2022-11-20T13:21:59;100477.09;;;10.14;64.72
28289;BME280;15558;50.874;6.964;2022-11-20T13:24:28;100469.88;;;10.26;64.16
28289;BME280;15558;50.874;6.964;2022-11-20T13:29:35;100458.03;;;10.29;65.02
28289;BME280;15558;50.874;6.964;2022-11-20T13:32:14;100450.63;;;10.20;64.97
28289;BME280;15558;50.874;6.964;2022-11-20T13:34:52;100456.53;;;10.37;64.24
28289;BME280;15558;50.874;6.964;2022-11-20T13:37:38;100448.13;;;10.37;64.54
28289;BME280;15558;50.874;6.964;2022-11-20T13:42:54;100440.09;;;10.30;64.94
28289;BME280;15558;50.874;6.964;2022-11-20T13:45:27;100448.50;;;10.30;64.97
28289;BME280;15558;50.874;6.964;2022-11-20T13:47:54;100433.69;;;10.43;64.09
28289;BME280;15558;50.874;6.964;2022-11-20T13:50:39;100424.63;;;10.33;64.06
28289;BME280;15558;50.874;6.964;2022-11-20T13:56:38;100426.34;;;10.47;64.36
28289;BME280;15558;50.874;6.964;2022-11-20T13:59:40;100418.38;;;10.36;64.82
28289;BME280;15558;50.874;6.964;2022-11-20T14:02:16;100421.94;;;10.41;64.48
28289;BME280;15558;50.874;6.964;2022-11-20T14:04:46;100410.88;;;10.31;64.30
28289;BME280;15558;50.874;6.964;2022-11-20T14:07:16;100403.09;;;10.28;65.01
28289;BME280;15558;50.874;6.964;2022-11-20T14:09:54;100397.47;;;10.28;64.65
28289;BME280;15558;50.874;6.964;2022-11-20T14:12:27;100393.88;;;10.41;64.94
28289;BME280;15558;50.874;6.964;2022-11-20T14:14:54;100396.16;;;10.39;65.00
28289;BME280;15558;50.874;6.964;2022-11-20T14:17:23;100380.78;;;10.37;65.39
28289;BME280;15558;50.874;6.964;2022-11-20T14:19:52;100381.78;;;10.27;65.52
28289;BME280;15558;50.874;6.964;2022-11-20T14:22:26;100377.66;;;10.38;65.39
28289;BME280;15558;50.874;6.964;2022-11-20T14:30:16;100363.09;;;10.36;65.35
28289;BME280;15558;50.874;6.964;2022-11-20T14:32:42;100355.03;;;10.48;65.76
28289;BME280;15558;50.874;6.964;2022-11-20T14:35:16;100358.38;;;10.50;65.33
28289;BME280;15558;50.874;6.964;2022-11-20T14:37:45;100342.88;;;10.39;65.94
28289;BME280;15558;50.874;6.964;2022-11-20T14:42:50;100340.41;;;10.51;65.22